sensor_id;sensor_type;location;lat;lon;timestamp;P1;durP1;ratioP1;P2;durP2;ratioP2
77870;SDS011;67067;46.850;7.578;2023-06-14T16:45:23;5.88;;;3.17;;
77870;SDS011;67067;46.850;7.578;2023-06-14T16:46:31;6.40;;;3.30;;
77870;SDS011;67067;46.850;7.578;2023-06-14T16:47:33;4.95;;;3.28;;
77870;SDS011;67067;46.850;7.578;2023-06-14T16:48:35;3.40;;;3.10;;
77870;SDS011;67067;46.850;7.578;2023-06-14T16:49:37;6.05;;;3.55;;
77870;SDS011;67067;46.850;7.578;2023-06-14T16:50:42;4.25;;;3.10;;
77870;SDS011;67067;46.850;7.578;2023-06-14T16:51:44;4.38;;;3.20;;
77870;SDS011;67067;46.850;7.578;2023-06-14T16:52:46;7.70;;;3.53;;
77870;SDS011;67067;46.850;7.578;2023-06-14T16:53:48;4.22;;;3.22;;
77870;SDS011;67067;46.850;7.578;2023-06-14T16:54:49;4.45;;;3.30;;
77870;SDS011;67067;46.850;7.578;2023-06-14T16:55:51;12.25;;;3.33;;
77870;SDS011;67067;46.850;7.578;2023-06-14T16:56:55;4.63;;;3.38;;
77870;SDS011;67067;46.850;7.578;2023-06-14T16:57:57;3.35;;;3.00;;
77870;SDS011;67067;46.850;7.578;2023-06-14T16:58:59;4.78;;;3.25;;
77870;SDS011;67067;46.850;7.578;2023-06-14T17:00:01;4.13;;;3.30;;
77870;SDS011;67067;46.850;7.578;2023-06-14T17:01:05;3.47;;;3.00;;
77870;SDS011;67067;46.850;7.578;2023-06-14T17:02:07;4.70;;;3.35;;
77870;SDS011;67067;46.850;7.578;2023-06-14T17:03:11;5.13;;;3.40;;
77870;SDS011;67067;46.850;7.578;2023-06-14T17:04:13;6.90;;;3.33;;
77870;SDS011;67067;46.850;7.578;2023-06-14T17:05:15;4.55;;;3.33;;
77870;SDS011;67067;46.850;7.578;2023-06-14T17:06:17;3.45;;;3.08;;
77870;SDS011;67067;46.850;7.578;2023-06-14T17:07:22;4.13;;;3.38;;
77870;SDS011;67067;46.850;7.578;2023-06-14T17:08:23;5.68;;;3.15;;
77870;SDS011;67067;46.850;7.578;2023-06-14T17:09:26;5.90;;;3.58;;
77870;SDS011;67067;46.850;7.578;2023-06-14T17:10:28;6.57;;;3.55;;
77870;SDS011;67067;46.850;7.578;2023-06-14T17:11:30;6.35;;;3.50;;
77870;SDS011;67067;46.850;7.578;2023-06-14T17:12:34;3.78;;;3.22;;
77870;SDS011;67067;46.850;7.578;2023-06-14T17:13:36;4.43;;;3.45;;
77870;SDS011;67067;46.850;7.578;2023-06-14T17:14:38;6.70;;;3.40;;
77870;SDS011;67067;46.850;7.578;2023-06-14T17:15:40;7.32;;;3.40;;
77870;SDS011;67067;46.850;7.578;2023-06-14T17:16:42;3.55;;;3.13;;
77870;SDS011;67067;46.850;7.578;2023-06-14T17:17:44;5.18;;;3.55;;
77870;SDS011;67067;46.850;7.578;2023-06-14T17:18:48;3.45;;;3.15;;
77870;SDS011;67067;46.850;7.578;2023-06-14T17:19:50;8.98;;;3.85;;
77870;SDS011;67067;46.850;7.578;2023-06-14T17:20:53;7.60;;;3.47;;
77870;SDS011;67067;46.850;7.578;2023-06-14T17:21:55;8.18;;;3.20;;
77870;SDS011;67067;46.850;7.578;2023-06-14T17:22:57;6.20;;;3.20;;
77870;SDS011;67067;46.850;7.578;2023-06-14T17:24:01;7.45;;;3.47;;
77870;SDS011;67067;46.850;7.578;2023-06-14T17:25:03;5.22;;;3.25;;
77870;SDS011;67067;46.850;7.578;2023-06-14T17:26:05;4.65;;;3.45;;
77870;SDS011;67067;46.850;7.578;2023-06-14T17:27:07;4.63;;;3.33;;
77870;SDS011;67067;46.850;7.578;2023-06-14T17:28:09;4.78;;;3.28;;
77870;SDS011;67067;46.850;7.578;2023-06-14T17:29:11;7.15;;;3.25;;
77870;SDS011;67067;46.850;7.578;2023-06-14T17:30:13;4.50;;;2.88;;
77870;SDS011;67067;46.850;7.578;2023-06-14T17:31:15;4.07;;;3.50;;
77870;SDS011;67067;46.850;7.578;2023-06-14T17:32:19;10.55;;;3.60;;
77870;SDS011;67067;46.850;7.578;2023-06-14T17:33:27;3.78;;;3.33;;
77870;SDS011;67067;46.850;7.578;2023-06-14T17:34:29;4.00;;;2.90;;
77870;SDS011;67067;46.850;7.578;2023-06-14T17:35:31;9.90;;;3.33;;
77870;SDS011;67067;46.850;7.578;2023-06-14T17:36:33;4.78;;;3.20;;
77870;SDS011;67067;46.850;7.578;2023-06-14T17:37:35;4.53;;;3.13;;
77870;SDS011;67067;46.850;7.578;2023-06-14T17:38:37;7.05;;;3.40;;
77870;SDS011;67067;46.850;7.578;2023-06-14T17:39:38;3.60;;;3.20;;
77870;SDS011;67067;46.850;7.578;2023-06-14T17:40:42;4.45;;;3.38;;
77870;SDS011;67067;46.850;7.578;2023-06-14T17:41:51;5.18;;;3.25;;
77870;SDS011;67067;46.850;7.578;2023-06-14T17:42:52;4.80;;;3.15;;
77870;SDS011;67067;46.850;7.578;2023-06-14T17:43:57;6.07;;;3.38;;
77870;SDS011;67067;46.850;7.578;2023-06-14T17:44:59;4.93;;;3.47;;
77870;SDS011;67067;46.850;7.578;2023-06-14T17:46:01;4.80;;;3.42;;
77870;SDS011;67067;46.850;7.578;2023-06-14T17:47:03;6.13;;;3.08;;
77870;SDS011;67067;46.850;7.578;2023-06-14T17:48:05;3.33;;;3.03;;
77870;SDS011;67067;46.850;7.578;2023-06-14T17:49:07;4.07;;;3.28;;
77870;SDS011;67067;46.850;7.578;2023-06-14T17:50:11;3.50;;;3.20;;
77870;SDS011;67067;46.850;7.578;2023-06-14T17:51:16;6.88;;;3.40;;
77870;SDS011;67067;46.850;7.578;2023-06-14T17:52:19;4.47;;;3.10;;
77870;SDS011;67067;46.850;7.578;2023-06-14T17:53:22;6.32;;;3.45;;
77870;SDS011;67067;46.850;7.578;2023-06-14T17:54:24;4.55;;;3.33;;
77870;SDS011;67067;46.850;7.578;2023-06-14T17:55:26;5.97;;;3.25;;
77870;SDS011;67067;46.850;7.578;2023-06-14T17:56:27;5.35;;;3.47;;
77870;SDS011;67067;46.850;7.578;2023-06-14T17:57:29;5.93;;;3.40;;
77870;SDS011;67067;46.850;7.578;2023-06-14T17:58:31;4.43;;;3.40;;
77870;SDS011;67067;46.850;7.578;2023-06-14T17:59:32;4.25;;;3.42;;
77870;SDS011;67067;46.850;7.578;2023-06-14T18:00:34;3.92;;;2.95;;
77870;SDS011;67067;46.850;7.578;2023-06-14T18:01:36;5.65;;;3.50;;
77870;SDS011;67067;46.850;7.578;2023-06-14T18:02:38;4.65;;;3.50;;
77870;SDS011;67067;46.850;7.578;2023-06-14T18:03:39;6.07;;;3.08;;
77870;SDS011;67067;46.850;7.578;2023-06-14T18:04:41;7.97;;;3.83;;
77870;SDS011;67067;46.850;7.578;2023-06-14T18:05:43;4.05;;;3.38;;
77870;SDS011;67067;46.850;7.578;2023-06-14T18:06:48;4.47;;;3.20;;
77870;SDS011;67067;46.850;7.578;2023-06-14T18:07:50;3.88;;;3.47;;
77870;SDS011;67067;46.850;7.578;2023-06-14T18:08:51;6.22;;;3.35;;
77870;SDS011;67067;46.850;7.578;2023-06-14T18:09:53;3.67;;;3.20;;
77870;SDS011;67067;46.850;7.578;2023-06-14T18:10:55;6.82;;;3.92;;
77870;SDS011;67067;46.850;7.578;2023-06-14T18:11:57;5.30;;;3.40;;
77870;SDS011;67067;46.850;7.578;2023-06-14T18:12:58;5.47;;;3.35;;
77870;SDS011;67067;46.850;7.578;2023-06-14T18:14:01;5.55;;;3.60;;
77870;SDS011;67067;46.850;7.578;2023-06-14T18:15:03;6.30;;;3.40;;
77870;SDS011;67067;46.850;7.578;2023-06-14T18:16:05;6.60;;;3.58;;
77870;SDS011;67067;46.850;7.578;2023-06-14T18:17:07;3.65;;;3.35;;
77870;SDS011;67067;46.850;7.578;2023-06-14T18:18:09;3.97;;;3.40;;
77870;SDS011;67067;46.850;7.578;2023-06-14T18:19:11;4.00;;;3.60;;
77870;SDS011;67067;46.850;7.578;2023-06-14T18:20:18;6.13;;;3.60;;
77870;SDS011;67067;46.850;7.578;2023-06-14T18:21:22;3.72;;;3.40;;
77870;SDS011;67067;46.850;7.578;2023-06-14T18:22:28;6.25;;;3.70;;
77870;SDS011;67067;46.850;7.578;2023-06-14T18:23:30;5.57;;;3.63;;
77870;SDS011;67067;46.850;7.578;2023-06-14T18:24:31;5.60;;;3.63;;
77870;SDS011;67067;46.850;7.578;2023-06-14T18:25:33;7.22;;;3.60;;
77870;SDS011;67067;46.850;7.578;2023-06-14T18:26:38;6.03;;;3.60;;
77870;SDS011;67067;46.850;7.578;2023-06-14T18:27:39;7.07;;;3.67;;
77870;SDS011;67067;46.850;7.578;2023-06-14T18:28:41;6.05;;;3.15;;
77870;SDS011;67067;46.850;7.578;2023-06-14T18:29:43;7.60;;;3.40;;
77870;SDS011;67067;46.850;7.578;2023-06-14T18:30:49;10.43;;;3.88;;
77870;SDS011;67067;46.850;7.578;2023-06-14T18:31:54;6.25;;;3.47;;
77870;SDS011;67067;46.850;7.578;2023-06-14T18:32:57;6.70;;;3.55;;
77870;SDS011;67067;46.850;7.578;2023-06-14T18:33:59;4.75;;;3.60;;
77870;SDS011;67067;46.850;7.578;2023-06-14T18:35:01;7.22;;;3.63;;
77870;SDS011;67067;46.850;7.578;2023-06-14T18:36:03;9.63;;;3.53;;
77870;SDS011;67067;46.850;7.578;2023-06-14T18:37:05;5.60;;;3.30;;
77870;SDS011;67067;46.850;7.578;2023-06-14T18:38:07;7.10;;;3.50;;
77870;SDS011;67067;46.850;7.578;2023-06-14T18:39:08;4.32;;;3.42;;
77870;SDS011;67067;46.850;7.578;2023-06-14T18:40:11;5.55;;;3.35;;
77870;SDS011;67067;46.850;7.578;2023-06-14T18:41:14;4.32;;;3.25;;
77870;SDS011;67067;46.850;7.578;2023-06-14T18:42:16;3.15;;;2.95;;
77870;SDS011;67067;46.850;7.578;2023-06-14T18:43:18;5.15;;;3.50;;
77870;SDS011;67067;46.850;7.578;2023-06-14T18:44:20;6.38;;;3.63;;
77870;SDS011;67067;46.850;7.578;2023-06-14T18:45:22;5.22;;;3.45;;
77870;SDS011;67067;46.850;7.578;2023-06-14T18:46:24;3.63;;;3.28;;
77870;SDS011;67067;46.850;7.578;2023-06-14T18:47:27;5.72;;;3.55;;
77870;SDS011;67067;46.850;7.578;2023-06-14T18:48:29;4.90;;;3.20;;
77870;SDS011;67067;46.850;7.578;2023-06-14T18:49:31;7.65;;;3.50;;
77870;SDS011;67067;46.850;7.578;2023-06-14T18:50:35;5.78;;;3.83;;
77870;SDS011;67067;46.850;7.578;2023-06-14T18:51:36;4.32;;;3.50;;
77870;SDS011;67067;46.850;7.578;2023-06-14T18:52:40;3.60;;;3.30;;
77870;SDS011;67067;46.850;7.578;2023-06-14T18:53:42;6.50;;;3.42;;
77870;SDS011;67067;46.850;7.578;2023-06-14T18:54:46;4.65;;;3.30;;
77870;SDS011;67067;46.850;7.578;2023-06-14T18:55:48;6.57;;;3.42;;
77870;SDS011;67067;46.850;7.578;2023-06-14T18:56:50;4.93;;;3.50;;
77870;SDS011;67067;46.850;7.578;2023-06-14T18:57:52;3.97;;;3.58;;
77870;SDS011;67067;46.850;7.578;2023-06-14T18:58:53;3.80;;;3.50;;
77870;SDS011;67067;46.850;7.578;2023-06-14T18:59:55;6.10;;;3.72;;
77870;SDS011;67067;46.850;7.578;2023-06-14T19:00:57;4.72;;;3.42;;
77870;SDS011;67067;46.850;7.578;2023-06-14T19:02:01;3.97;;;3.58;;
77870;SDS011;67067;46.850;7.578;2023-06-14T19:03:02;5.80;;;3.60;;
77870;SDS011;67067;46.850;7.578;2023-06-14T19:04:05;6.57;;;3.30;;
77870;SDS011;67067;46.850;7.578;2023-06-14T19:05:07;6.05;;;3.70;;
77870;SDS011;67067;46.850;7.578;2023-06-14T19:06:11;4.75;;;3.70;;
77870;SDS011;67067;46.850;7.578;2023-06-14T19:07:15;4.60;;;3.72;;
77870;SDS011;67067;46.850;7.578;2023-06-14T19:08:23;8.70;;;3.85;;
77870;SDS011;67067;46.850;7.578;2023-06-14T19:09:25;4.43;;;3.50;;
77870;SDS011;67067;46.850;7.578;2023-06-14T19:10:29;5.75;;;3.67;;
77870;SDS011;67067;46.850;7.578;2023-06-14T19:11:36;5.60;;;3.83;;
77870;SDS011;67067;46.850;7.578;2023-06-14T19:12:38;4.00;;;3.60;;
77870;SDS011;67067;46.850;7.578;2023-06-14T19:13:40;3.90;;;3.53;;
77870;SDS011;67067;46.850;7.578;2023-06-14T19:14:42;9.10;;;4.00;;
77870;SDS011;67067;46.850;7.578;2023-06-14T19:15:43;8.38;;;3.80;;
77870;SDS011;67067;46.850;7.578;2023-06-14T19:16:46;7.13;;;3.80;;
77870;SDS011;67067;46.850;7.578;2023-06-14T19:17:56;7.25;;;4.07;;
77870;SDS011;67067;46.850;7.578;2023-06-14T19:18:59;6.15;;;4.35;;
77870;SDS011;67067;46.850;7.578;2023-06-14T19:20:01;5.43;;;3.83;;
77870;SDS011;67067;46.850;7.578;2023-06-14T19:21:03;5.60;;;3.80;;
77870;SDS011;67067;46.850;7.578;2023-06-14T19:22:05;5.72;;;3.90;;
77870;SDS011;67067;46.850;7.578;2023-06-14T19:23:07;7.53;;;3.88;;
77870;SDS011;67067;46.850;7.578;2023-06-14T19:24:11;14.30;;;4.20;;
77870;SDS011;67067;46.850;7.578;2023-06-14T19:25:17;5.50;;;3.97;;
77870;SDS011;67067;46.850;7.578;2023-06-14T19:26:19;6.03;;;3.65;;
77870;SDS011;67067;46.850;7.578;2023-06-14T19:27:21;10.45;;;4.32;;
77870;SDS011;67067;46.850;7.578;2023-06-14T19:28:23;5.95;;;3.78;;
77870;SDS011;67067;46.850;7.578;2023-06-14T19:29:28;6.35;;;3.95;;
77870;SDS011;67067;46.850;7.578;2023-06-14T19:30:32;6.53;;;4.03;;
77870;SDS011;67067;46.850;7.578;2023-06-14T19:31:33;7.13;;;3.90;;
77870;SDS011;67067;46.850;7.578;2023-06-14T19:32:36;7.53;;;4.10;;
77870;SDS011;67067;46.850;7.578;2023-06-14T19:33:40;9.65;;;3.53;;
77870;SDS011;67067;46.850;7.578;2023-06-14T19:34:41;7.30;;;4.18;;
77870;SDS011;67067;46.850;7.578;2023-06-14T19:35:46;10.85;;;4.13;;
77870;SDS011;67067;46.850;7.578;2023-06-14T19:37:49;4.87;;;4.03;;
77870;SDS011;67067;46.850;7.578;2023-06-14T19:38:52;7.43;;;3.88;;
77870;SDS011;67067;46.850;7.578;2023-06-14T19:40:55;7.18;;;4.10;;
77870;SDS011;67067;46.850;7.578;2023-06-14T19:41:57;4.05;;;3.65;;
77870;SDS011;67067;46.850;7.578;2023-06-14T19:43:00;5.35;;;4.07;;
77870;SDS011;67067;46.850;7.578;2023-06-14T19:44:02;9.60;;;4.07;;
77870;SDS011;67067;46.850;7.578;2023-06-14T19:45:05;6.68;;;3.90;;
77870;SDS011;67067;46.850;7.578;2023-06-14T19:46:09;9.50;;;3.80;;
77870;SDS011;67067;46.850;7.578;2023-06-14T19:47:11;6.38;;;4.30;;
77870;SDS011;67067;46.850;7.578;2023-06-14T19:48:13;7.68;;;4.30;;
77870;SDS011;67067;46.850;7.578;2023-06-14T19:49:21;7.18;;;4.10;;
77870;SDS011;67067;46.850;7.578;2023-06-14T19:50:25;4.85;;;3.60;;
77870;SDS011;67067;46.850;7.578;2023-06-14T19:51:27;8.70;;;4.20;;
77870;SDS011;67067;46.850;7.578;2023-06-14T19:52:31;4.88;;;3.83;;
77870;SDS011;67067;46.850;7.578;2023-06-14T19:54:34;7.65;;;4.00;;
77870;SDS011;67067;46.850;7.578;2023-06-14T19:55:38;6.57;;;3.65;;
77870;SDS011;67067;46.850;7.578;2023-06-14T19:56:41;8.43;;;4.28;;
77870;SDS011;67067;46.850;7.578;2023-06-14T19:58:46;5.60;;;3.70;;
77870;SDS011;67067;46.850;7.578;2023-06-14T19:59:49;6.78;;;3.92;;
77870;SDS011;67067;46.850;7.578;2023-06-14T20:01:52;6.87;;;4.50;;
77870;SDS011;67067;46.850;7.578;2023-06-14T20:02:54;3.85;;;3.45;;
77870;SDS011;67067;46.850;7.578;2023-06-14T20:03:58;5.82;;;4.20;;
77870;SDS011;67067;46.850;7.578;2023-06-14T20:05:00;9.70;;;4.18;;
77870;SDS011;67067;46.850;7.578;2023-06-14T20:06:05;5.22;;;4.05;;
77870;SDS011;67067;46.850;7.578;2023-06-14T20:07:08;5.30;;;4.15;;
77870;SDS011;67067;46.850;7.578;2023-06-14T20:09:11;5.13;;;3.90;;
77870;SDS011;67067;46.850;7.578;2023-06-14T20:10:15;7.10;;;4.03;;
77870;SDS011;67067;46.850;7.578;2023-06-14T20:12:18;6.63;;;4.17;;
77870;SDS011;67067;46.850;7.578;2023-06-14T20:13:23;10.50;;;4.57;;
77870;SDS011;67067;46.850;7.578;2023-06-14T20:14:25;8.73;;;4.10;;
77870;SDS011;67067;46.850;7.578;2023-06-14T20:15:27;6.18;;;4.00;;
77870;SDS011;67067;46.850;7.578;2023-06-14T20:17:30;5.15;;;4.00;;
77870;SDS011;67067;46.850;7.578;2023-06-14T20:19:36;4.40;;;3.72;;
77870;SDS011;67067;46.850;7.578;2023-06-14T20:20:38;8.85;;;4.10;;
77870;SDS011;67067;46.850;7.578;2023-06-14T20:21:45;5.68;;;4.10;;
77870;SDS011;67067;46.850;7.578;2023-06-14T20:22:47;9.05;;;4.63;;
77870;SDS011;67067;46.850;7.578;2023-06-14T20:23:48;6.82;;;4.53;;
77870;SDS011;67067;46.850;7.578;2023-06-14T20:24:50;9.32;;;4.78;;
77870;SDS011;67067;46.850;7.578;2023-06-14T20:25:55;8.25;;;4.32;;
77870;SDS011;67067;46.850;7.578;2023-06-14T20:26:59;11.65;;;4.53;;
77870;SDS011;67067;46.850;7.578;2023-06-14T20:28:03;7.40;;;4.40;;
77870;SDS011;67067;46.850;7.578;2023-06-14T20:29:05;6.75;;;3.97;;
77870;SDS011;67067;46.850;7.578;2023-06-14T20:30:07;6.03;;;4.70;;
77870;SDS011;67067;46.850;7.578;2023-06-14T20:31:09;6.50;;;4.45;;
77870;SDS011;67067;46.850;7.578;2023-06-14T20:32:12;13.48;;;4.38;;
77870;SDS011;67067;46.850;7.578;2023-06-14T20:33:14;9.23;;;3.75;;
77870;SDS011;67067;46.850;7.578;2023-06-14T20:35:18;6.97;;;4.20;;
77870;SDS011;67067;46.850;7.578;2023-06-14T20:37:24;9.68;;;4.78;;
77870;SDS011;67067;46.850;7.578;2023-06-14T20:38:25;9.70;;;4.40;;
77870;SDS011;67067;46.850;7.578;2023-06-14T20:39:28;7.22;;;4.38;;
77870;SDS011;67067;46.850;7.578;2023-06-14T20:41:31;8.63;;;4.60;;
77870;SDS011;67067;46.850;7.578;2023-06-14T20:43:35;5.87;;;4.60;;
77870;SDS011;67067;46.850;7.578;2023-06-14T20:44:37;7.47;;;4.45;;
77870;SDS011;67067;46.850;7.578;2023-06-14T20:45:42;10.18;;;4.30;;
77870;SDS011;67067;46.850;7.578;2023-06-14T20:46:44;8.48;;;4.65;;
77870;SDS011;67067;46.850;7.578;2023-06-14T20:47:50;7.78;;;4.00;;
77870;SDS011;67067;46.850;7.578;2023-06-14T20:48:52;9.73;;;4.30;;
77870;SDS011;67067;46.850;7.578;2023-06-14T20:49:56;8.15;;;4.20;;
77870;SDS011;67067;46.850;7.578;2023-06-14T20:50:58;6.30;;;4.18;;
77870;SDS011;67067;46.850;7.578;2023-06-14T20:53:02;5.28;;;4.00;;
77870;SDS011;67067;46.850;7.578;2023-06-14T20:55:07;5.45;;;4.13;;
77870;SDS011;67067;46.850;7.578;2023-06-14T20:56:09;6.20;;;4.55;;
77870;SDS011;67067;46.850;7.578;2023-06-14T20:57:12;8.05;;;4.40;;
77870;SDS011;67067;46.850;7.578;2023-06-14T20:58:14;5.90;;;4.43;;
77870;SDS011;67067;46.850;7.578;2023-06-14T20:59:20;6.53;;;4.30;;
77870;SDS011;67067;46.850;7.578;2023-06-14T21:00:22;6.75;;;4.25;;
77870;SDS011;67067;46.850;7.578;2023-06-14T21:01:24;7.75;;;4.10;;
77870;SDS011;67067;46.850;7.578;2023-06-14T21:02:34;8.95;;;4.60;;
77870;SDS011;67067;46.850;7.578;2023-06-14T21:04:37;6.00;;;4.28;;
77870;SDS011;67067;46.850;7.578;2023-06-14T21:05:40;5.82;;;4.30;;
77870;SDS011;67067;46.850;7.578;2023-06-14T21:07:46;10.50;;;4.15;;
77870;SDS011;67067;46.850;7.578;2023-06-14T21:09:50;6.72;;;4.15;;
77870;SDS011;67067;46.850;7.578;2023-06-14T21:11:57;7.45;;;4.10;;
77870;SDS011;67067;46.850;7.578;2023-06-14T21:13:01;7.80;;;3.97;;
77870;SDS011;67067;46.850;7.578;2023-06-14T21:15:05;6.75;;;4.10;;
77870;SDS011;67067;46.850;7.578;2023-06-14T21:16:09;6.63;;;4.28;;
77870;SDS011;67067;46.850;7.578;2023-06-14T21:18:15;10.70;;;4.20;;
77870;SDS011;67067;46.850;7.578;2023-06-14T21:19:17;5.97;;;4.43;;
77870;SDS011;67067;46.850;7.578;2023-06-14T21:21:20;6.32;;;4.45;;
77870;SDS011;67067;46.850;7.578;2023-06-14T21:22:25;7.88;;;4.60;;
77870;SDS011;67067;46.850;7.578;2023-06-14T21:23:26;6.82;;;4.00;;
77870;SDS011;67067;46.850;7.578;2023-06-14T21:25:32;11.18;;;4.18;;
77870;SDS011;67067;46.850;7.578;2023-06-14T21:26:36;6.10;;;4.32;;
77870;SDS011;67067;46.850;7.578;2023-06-14T21:27:38;5.95;;;4.28;;
77870;SDS011;67067;46.850;7.578;2023-06-14T21:28:40;6.60;;;4.20;;
77870;SDS011;67067;46.850;7.578;2023-06-14T21:30:44;8.13;;;4.33;;
77870;SDS011;67067;46.850;7.578;2023-06-14T21:31:47;4.57;;;3.80;;
77870;SDS011;67067;46.850;7.578;2023-06-14T21:33:51;5.93;;;3.80;;
77870;SDS011;67067;46.850;7.578;2023-06-14T21:34:55;6.35;;;4.28;;
77870;SDS011;67067;46.850;7.578;2023-06-14T21:35:56;11.07;;;4.35;;
77870;SDS011;67067;46.850;7.578;2023-06-14T21:38:00;7.55;;;4.28;;
77870;SDS011;67067;46.850;7.578;2023-06-14T21:39:02;4.85;;;3.90;;
77870;SDS011;67067;46.850;7.578;2023-06-14T21:40:04;9.15;;;3.95;;
77870;SDS011;67067;46.850;7.578;2023-06-14T21:41:06;6.85;;;4.25;;
77870;SDS011;67067;46.850;7.578;2023-06-14T21:43:10;6.90;;;4.35;;
77870;SDS011;67067;46.850;7.578;2023-06-14T21:44:11;7.43;;;3.88;;
77870;SDS011;67067;46.850;7.578;2023-06-14T21:46:18;9.17;;;4.47;;
77870;SDS011;67067;46.850;7.578;2023-06-14T21:47:20;5.90;;;3.95;;
77870;SDS011;67067;46.850;7.578;2023-06-14T21:48:21;8.25;;;4.57;;
77870;SDS011;67067;46.850;7.578;2023-06-14T21:50:24;8.10;;;4.38;;
77870;SDS011;67067;46.850;7.578;2023-06-14T21:52:28;5.72;;;3.95;;
77870;SDS011;67067;46.850;7.578;2023-06-14T21:54:35;7.03;;;4.28;;
77870;SDS011;67067;46.850;7.578;2023-06-14T21:55:37;6.88;;;4.32;;
77870;SDS011;67067;46.850;7.578;2023-06-14T21:56:39;6.18;;;3.97;;
77870;SDS011;67067;46.850;7.578;2023-06-14T21:58:43;5.97;;;4.00;;
77870;SDS011;67067;46.850;7.578;2023-06-14T22:00:48;6.28;;;4.25;;
77870;SDS011;67067;46.850;7.578;2023-06-14T22:01:52;5.85;;;4.10;;
77870;SDS011;67067;46.850;7.578;2023-06-14T22:02:54;8.13;;;4.30;;
77870;SDS011;67067;46.850;7.578;2023-06-14T22:03:56;7.97;;;4.53;;
77870;SDS011;67067;46.850;7.578;2023-06-14T22:04:58;8.68;;;4.40;;
77870;SDS011;67067;46.850;7.578;2023-06-14T22:06:00;8.68;;;4.63;;
77870;SDS011;67067;46.850;7.578;2023-06-14T22:08:03;6.75;;;4.55;;
77870;SDS011;67067;46.850;7.578;2023-06-14T22:09:05;4.88;;;4.32;;
77870;SDS011;67067;46.850;7.578;2023-06-14T22:10:07;4.97;;;4.40;;
77870;SDS011;67067;46.850;7.578;2023-06-14T22:11:09;8.00;;;4.20;;
77870;SDS011;67067;46.850;7.578;2023-06-14T22:12:12;6.68;;;4.47;;
77870;SDS011;67067;46.850;7.578;2023-06-14T22:13:17;6.65;;;4.40;;
77870;SDS011;67067;46.850;7.578;2023-06-14T22:14:19;6.85;;;4.50;;
77870;SDS011;67067;46.850;7.578;2023-06-14T22:15:23;10.63;;;4.60;;
77870;SDS011;67067;46.850;7.578;2023-06-14T22:16:25;6.22;;;4.20;;
77870;SDS011;67067;46.850;7.578;2023-06-14T22:17:28;7.30;;;4.45;;
77870;SDS011;67067;46.850;7.578;2023-06-14T22:18:31;6.97;;;4.22;;
77870;SDS011;67067;46.850;7.578;2023-06-14T22:19:33;8.57;;;4.60;;
77870;SDS011;67067;46.850;7.578;2023-06-14T22:20:38;8.52;;;4.28;;
77870;SDS011;67067;46.850;7.578;2023-06-14T22:22:50;6.68;;;4.20;;
77870;SDS011;67067;46.850;7.578;2023-06-14T22:23:52;8.55;;;4.40;;
77870;SDS011;67067;46.850;7.578;2023-06-14T22:24:54;6.20;;;4.25;;
77870;SDS011;67067;46.850;7.578;2023-06-14T22:25:56;6.38;;;4.53;;
77870;SDS011;67067;46.850;7.578;2023-06-14T22:28:00;7.10;;;4.63;;
77870;SDS011;67067;46.850;7.578;2023-06-14T22:30:07;7.60;;;4.32;;
77870;SDS011;67067;46.850;7.578;2023-06-14T22:31:09;6.03;;;4.50;;
77870;SDS011;67067;46.850;7.578;2023-06-14T22:32:12;9.18;;;4.63;;
77870;SDS011;67067;46.850;7.578;2023-06-14T22:33:14;5.80;;;4.63;;
77870;SDS011;67067;46.850;7.578;2023-06-14T22:34:18;6.90;;;4.28;;
77870;SDS011;67067;46.850;7.578;2023-06-14T22:35:20;7.97;;;4.28;;
77870;SDS011;67067;46.850;7.578;2023-06-14T22:36:22;7.72;;;4.70;;
77870;SDS011;67067;46.850;7.578;2023-06-14T22:37:26;5.35;;;4.32;;
77870;SDS011;67067;46.850;7.578;2023-06-14T22:38:38;10.73;;;4.30;;
77870;SDS011;67067;46.850;7.578;2023-06-14T22:39:45;8.23;;;5.20;;
77870;SDS011;67067;46.850;7.578;2023-06-14T22:41:49;5.63;;;4.50;;
77870;SDS011;67067;46.850;7.578;2023-06-14T22:43:54;10.65;;;4.35;;
77870;SDS011;67067;46.850;7.578;2023-06-14T22:44:56;5.95;;;4.60;;
77870;SDS011;67067;46.850;7.578;2023-06-14T22:45:58;8.75;;;4.70;;
77870;SDS011;67067;46.850;7.578;2023-06-14T22:47:00;9.10;;;4.35;;
77870;SDS011;67067;46.850;7.578;2023-06-14T22:48:01;7.30;;;4.47;;
77870;SDS011;67067;46.850;7.578;2023-06-14T22:49:04;8.35;;;4.47;;
77870;SDS011;67067;46.850;7.578;2023-06-14T22:50:07;9.70;;;4.63;;
77870;SDS011;67067;46.850;7.578;2023-06-14T22:51:14;8.27;;;4.60;;
77870;SDS011;67067;46.850;7.578;2023-06-14T22:52:19;6.97;;;4.13;;
77870;SDS011;67067;46.850;7.578;2023-06-14T22:53:27;8.48;;;5.28;;
77870;SDS011;67067;46.850;7.578;2023-06-14T22:54:30;6.18;;;4.60;;
77870;SDS011;67067;46.850;7.578;2023-06-14T22:55:34;5.80;;;4.40;;
77870;SDS011;67067;46.850;7.578;2023-06-14T22:57:37;6.20;;;4.17;;
77870;SDS011;67067;46.850;7.578;2023-06-14T22:58:40;6.70;;;4.32;;
77870;SDS011;67067;46.850;7.578;2023-06-14T22:59:44;7.25;;;4.20;;
77870;SDS011;67067;46.850;7.578;2023-06-14T23:00:47;6.72;;;4.30;;
77870;SDS011;67067;46.850;7.578;2023-06-14T23:01:49;6.30;;;4.07;;
77870;SDS011;67067;46.850;7.578;2023-06-14T23:02:53;5.70;;;4.70;;
77870;SDS011;67067;46.850;7.578;2023-06-14T23:03:57;6.35;;;4.40;;
77870;SDS011;67067;46.850;7.578;2023-06-14T23:05:01;6.07;;;4.22;;
77870;SDS011;67067;46.850;7.578;2023-06-14T23:06:04;6.93;;;4.30;;
77870;SDS011;67067;46.850;7.578;2023-06-14T23:07:08;4.78;;;4.30;;
77870;SDS011;67067;46.850;7.578;2023-06-14T23:08:10;4.85;;;4.35;;
77870;SDS011;67067;46.850;7.578;2023-06-14T23:10:14;6.20;;;4.57;;
77870;SDS011;67067;46.850;7.578;2023-06-14T23:11:22;7.30;;;4.50;;
77870;SDS011;67067;46.850;7.578;2023-06-14T23:12:24;7.70;;;4.20;;
77870;SDS011;67067;46.850;7.578;2023-06-14T23:13:27;10.00;;;4.72;;
77870;SDS011;67067;46.850;7.578;2023-06-14T23:14:29;5.57;;;4.30;;
77870;SDS011;67067;46.850;7.578;2023-06-14T23:15:31;6.20;;;4.35;;
77870;SDS011;67067;46.850;7.578;2023-06-14T23:16:33;8.95;;;4.60;;
77870;SDS011;67067;46.850;7.578;2023-06-14T23:17:37;5.55;;;4.65;;
77870;SDS011;67067;46.850;7.578;2023-06-14T23:18:42;5.47;;;4.20;;
77870;SDS011;67067;46.850;7.578;2023-06-14T23:20:45;9.18;;;4.50;;
77870;SDS011;67067;46.850;7.578;2023-06-14T23:21:47;7.10;;;4.72;;
77870;SDS011;67067;46.850;7.578;2023-06-14T23:22:49;11.18;;;4.95;;
77870;SDS011;67067;46.850;7.578;2023-06-14T23:23:53;5.82;;;4.20;;
77870;SDS011;67067;46.850;7.578;2023-06-14T23:24:55;4.85;;;4.30;;
77870;SDS011;67067;46.850;7.578;2023-06-14T23:25:59;6.97;;;4.70;;
77870;SDS011;67067;46.850;7.578;2023-06-14T23:29:08;8.73;;;4.38;;
77870;SDS011;67067;46.850;7.578;2023-06-14T23:30:10;5.40;;;4.05;;
77870;SDS011;67067;46.850;7.578;2023-06-14T23:31:15;5.72;;;4.38;;
77870;SDS011;67067;46.850;7.578;2023-06-14T23:32:16;4.95;;;4.38;;
77870;SDS011;67067;46.850;7.578;2023-06-14T23:33:20;7.20;;;4.28;;
77870;SDS011;67067;46.850;7.578;2023-06-14T23:34:24;6.32;;;4.57;;
77870;SDS011;67067;46.850;7.578;2023-06-14T23:35:27;6.90;;;4.40;;
77870;SDS011;67067;46.850;7.578;2023-06-14T23:36:29;7.25;;;4.22;;
77870;SDS011;67067;46.850;7.578;2023-06-14T23:37:33;6.55;;;5.05;;
77870;SDS011;67067;46.850;7.578;2023-06-14T23:38:37;7.18;;;4.85;;
77870;SDS011;67067;46.850;7.578;2023-06-14T23:39:46;7.10;;;4.75;;
77870;SDS011;67067;46.850;7.578;2023-06-14T23:40:52;6.40;;;4.68;;
77870;SDS011;67067;46.850;7.578;2023-06-14T23:41:56;7.60;;;4.97;;
77870;SDS011;67067;46.850;7.578;2023-06-14T23:42:59;10.35;;;4.80;;
77870;SDS011;67067;46.850;7.578;2023-06-14T23:44:07;7.63;;;4.72;;
77870;SDS011;67067;46.850;7.578;2023-06-14T23:46:12;10.43;;;4.90;;
77870;SDS011;67067;46.850;7.578;2023-06-14T23:47:17;5.05;;;4.05;;
77870;SDS011;67067;46.850;7.578;2023-06-14T23:48:19;6.63;;;4.40;;
77870;SDS011;67067;46.850;7.578;2023-06-14T23:49:22;6.75;;;4.43;;
77870;SDS011;67067;46.850;7.578;2023-06-14T23:50:24;5.47;;;4.22;;